Terminal Aerodrome Forecast
Issued by NWS

Home | Current Version | Previous Version | Text Only | Print | Product List | Glossary On
Versions: 1 2 3 4 5 6 7 8 9 10 11 12 13 14 15 16 17 18
000
FTUS43 KAPX 140530
TAFAPN
TAF
KAPN 140530Z 1406/1506 33008KT P6SM VCSH SCT028
      TEMPO 1406/1410 3SM -SHSN BKN028
     FM141000 33008KT P6SM SCT025
     FM141400 31008KT P6SM BKN025
     FM141800 30007KT P6SM BKN035
     FM150000 25004KT P6SM BKN030=

USA.gov is the U.S. government's official web portal to all federal, state and local government web resources and services.